Time;durP1;ratioP1;P1;durP2;ratioP2;P2;SDS_P1;SDS_P2;PMS_P1;PMS_P2;Temp;Humidity;BMP_temperature;BMP_pressure;BME280_temperature;BME280_humidity;BME280_pressure;Samples;Min_cycle;Max_cycle;Signal;HPM_P1;HPM_P2
2023/08/14 00:01:20;;;;;;;108.93;54.75;;;18.60;87.50;;;;;;4941315;28;97202;-74
2023/08/14 00:03:46;;;;;;;110.25;55.35;;;18.60;87.60;;;;;;4929035;28;94854;-74
2023/08/14 00:06:12;;;;;;;108.88;54.85;;;18.60;87.50;;;;;;4943282;28;96475;-73
2023/08/14 00:08:37;;;;;;;108.93;54.83;;;18.60;87.50;;;;;;4941338;28;94952;-72
2023/08/14 00:11:03;;;;;;;108.93;54.55;;;18.60;87.60;;;;;;4945496;28;96707;-73
2023/08/14 00:13:28;;;;;;;109.20;54.85;;;18.50;87.60;;;;;;4940274;28;96366;-74
2023/08/14 00:15:54;;;;;;;108.82;54.67;;;18.50;87.60;;;;;;4945539;28;95580;-73
2023/08/14 00:18:20;;;;;;;108.45;54.47;;;18.50;87.70;;;;;;4940238;28;97240;-73
2023/08/14 00:20:46;;;;;;;108.70;54.83;;;18.50;87.70;;;;;;4939982;28;97303;-75
2023/08/14 00:23:11;;;;;;;108.68;54.78;;;18.50;87.80;;;;;;4934137;28;97913;-74
2023/08/14 00:25:37;;;;;;;109.75;54.92;;;18.40;87.70;;;;;;4946466;28;95997;-70
2023/08/14 00:28:03;;;;;;;108.80;54.70;;;18.40;87.80;;;;;;4947455;28;95751;-73
2023/08/14 00:30:28;;;;;;;109.22;54.72;;;18.40;87.70;;;;;;4951795;28;96184;-72
2023/08/14 00:32:54;;;;;;;108.88;55.03;;;18.40;87.80;;;;;;4949799;28;96169;-74
2023/08/14 00:35:20;;;;;;;109.25;54.70;;;18.40;87.60;;;;;;4950760;28;95037;-73
2023/08/14 00:37:49;;;;;;;109.00;54.72;;;18.40;87.90;;;;;;4933167;28;95260;-74
2023/08/14 00:40:16;;;;;;;109.45;54.85;;;18.40;87.80;;;;;;4942813;28;95402;-75
2023/08/14 00:42:45;;;;;;;108.70;54.75;;;18.40;87.90;;;;;;4950383;28;98655;-75
2023/08/14 00:45:11;;;;;;;109.85;54.70;;;18.30;87.90;;;;;;4926938;28;94861;-73
2023/08/14 00:47:39;;;;;;;109.82;54.85;;;18.30;87.90;;;;;;4949017;28;94733;-73
2023/08/14 00:50:06;;;;;;;108.70;54.60;;;18.30;88.00;;;;;;4944921;28;96195;-75
2023/08/14 00:52:35;;;;;;;108.72;54.85;;;18.30;87.90;;;;;;4944621;28;98221;-72
2023/08/14 00:55:02;;;;;;;109.75;54.85;;;18.30;88.10;;;;;;4947405;28;96587;-73
2023/08/14 00:57:31;;;;;;;108.35;54.72;;;18.20;88.00;;;;;;4944297;28;94978;-74
2023/08/14 00:59:58;;;;;;;109.60;54.75;;;18.20;88.10;;;;;;4935282;28;97478;-73
2023/08/14 01:02:27;;;;;;;109.95;54.75;;;18.20;88.00;;;;;;4950798;28;95406;-73
2023/08/14 01:04:53;;;;;;;109.65;54.63;;;18.20;88.00;;;;;;4936402;28;95728;-71
2023/08/14 01:07:19;;;;;;;110.10;54.83;;;18.20;88.10;;;;;;4931253;28;95092;-74
2023/08/14 01:09:46;;;;;;;108.13;54.47;;;18.10;88.10;;;;;;4934247;28;95939;-72
2023/08/14 01:12:31;;;;;;;108.45;54.55;;;18.10;88.10;;;;;;4951085;28;95251;-73
2023/08/14 01:15:03;;;;;;;108.18;54.72;;;18.10;88.10;;;;;;4946981;28;95161;-73
2023/08/14 01:17:33;;;;;;;108.70;54.90;;;18.10;88.20;;;;;;4946920;28;97201;-73
2023/08/14 01:20:00;;;;;;;108.83;54.53;;;18.10;88.30;;;;;;4953392;28;96362;-73
2023/08/14 01:22:50;;;;;;;110.60;54.83;;;18.10;88.30;;;;;;4943976;28;95614;-72
2023/08/14 01:25:31;;;;;;;108.93;54.90;;;18.10;88.40;;;;;;4943340;28;96890;-74
2023/08/14 01:27:57;;;;;;;108.53;54.45;;;18.00;88.40;;;;;;4947372;28;96532;-72
2023/08/14 01:30:23;;;;;;;108.25;54.58;;;18.00;88.60;;;;;;4943824;28;95357;-72
2023/08/14 01:32:52;;;;;;;108.95;54.85;;;18.00;88.50;;;;;;4944145;28;95435;-74
2023/08/14 01:35:21;;;;;;;110.47;54.78;;;18.00;89.00;;;;;;4945701;28;94905;-74
2023/08/14 01:38:00;;;;;;;108.05;54.45;;;18.00;88.40;;;;;;4947233;28;95272;-74
2023/08/14 01:40:48;;;;;;;109.10;54.53;;;18.00;88.40;;;;;;4944705;28;95267;-74
2023/08/14 01:43:26;;;;;;;108.50;54.40;;;18.00;88.30;;;;;;4945490;28;96337;-74
2023/08/14 01:45:53;;;;;;;107.15;54.03;;;17.90;88.30;;;;;;4945744;28;96638;-75
2023/08/14 01:48:21;;;;;;;109.20;54.78;;;17.90;88.20;;;;;;4948177;28;94404;-73
2023/08/14 01:50:48;;;;;;;108.00;54.50;;;17.90;88.20;;;;;;4938926;28;97661;-73
2023/08/14 01:53:16;;;;;;;108.38;54.33;;;17.90;88.20;;;;;;4944524;28;95730;-74
2023/08/14 01:55:42;;;;;;;108.43;54.75;;;17.90;88.30;;;;;;4927965;28;97238;-74
2023/08/14 01:58:08;;;;;;;108.10;54.45;;;17.90;88.40;;;;;;4947025;28;96372;-71
2023/08/14 02:00:34;;;;;;;109.15;54.60;;;17.90;88.30;;;;;;4945789;28;95488;-73
2023/08/14 02:03:00;;;;;;;107.97;54.50;;;17.80;88.30;;;;;;4942040;28;95408;-73
2023/08/14 02:05:26;;;;;;;108.28;54.60;;;17.80;88.40;;;;;;4930549;28;95343;-74
2023/08/14 02:07:51;;;;;;;107.93;54.60;;;17.80;88.40;;;;;;4942597;28;95057;-75
2023/08/14 02:10:17;;;;;;;107.82;54.38;;;17.80;88.40;;;;;;4944059;28;98049;-74
2023/08/14 02:12:43;;;;;;;108.28;54.75;;;17.80;88.60;;;;;;4940346;28;98333;-73
2023/08/14 02:15:09;;;;;;;107.32;54.22;;;17.80;88.60;;;;;;4944053;28;96200;-74
2023/08/14 02:17:34;;;;;;;108.95;54.50;;;17.80;88.40;;;;;;4928476;28;98740;-73
2023/08/14 02:20:00;;;;;;;108.20;54.58;;;17.70;88.50;;;;;;4940060;28;96566;-71
2023/08/14 02:22:26;;;;;;;108.03;54.67;;;17.70;88.70;;;;;;4944202;28;96664;-72
2023/08/14 02:24:52;;;;;;;107.80;54.47;;;17.80;88.80;;;;;;4938778;28;94812;-74
2023/08/14 02:27:17;;;;;;;107.30;54.22;;;17.70;88.40;;;;;;4951464;28;95901;-73
2023/08/14 02:29:43;;;;;;;108.15;54.63;;;17.70;88.50;;;;;;4939049;28;95268;-74
2023/08/14 02:32:09;;;;;;;108.28;54.72;;;17.70;88.50;;;;;;4943678;28;94795;-74
2023/08/14 02:34:49;;;;;;;107.55;54.45;;;17.70;88.60;;;;;;4943619;28;99856;-73
2023/08/14 02:37:17;;;;;;;107.40;54.57;;;17.70;88.70;;;;;;4951948;28;94849;-74
2023/08/14 02:39:43;;;;;;;106.82;54.10;;;17.70;88.50;;;;;;4942942;28;95341;-74
2023/08/14 02:42:09;;;;;;;108.88;54.53;;;17.60;88.60;;;;;;4940036;28;99900;-72
2023/08/14 02:44:35;;;;;;;107.25;54.55;;;17.60;88.50;;;;;;4947547;28;96205;-74
2023/08/14 02:47:02;;;;;;;108.70;54.60;;;17.60;88.60;;;;;;4943215;28;97723;-74
2023/08/14 02:49:28;;;;;;;109.53;54.78;;;17.60;88.60;;;;;;4926708;28;95441;-72
2023/08/14 02:51:54;;;;;;;107.82;54.38;;;17.70;88.80;;;;;;4949022;28;95176;-73
2023/08/14 02:54:20;;;;;;;109.28;54.80;;;17.60;88.70;;;;;;4943574;28;96375;-71
2023/08/14 02:56:47;;;;;;;107.82;54.83;;;17.60;88.80;;;;;;4946763;28;95420;-73
2023/08/14 02:59:13;;;;;;;107.55;54.40;;;17.60;88.60;;;;;;4936343;28;99327;-73
2023/08/14 03:01:38;;;;;;;108.55;54.95;;;17.60;88.40;;;;;;4917594;28;96003;-72
2023/08/14 03:04:04;;;;;;;108.15;54.58;;;17.60;88.70;;;;;;4938783;28;96917;-74
2023/08/14 03:06:31;;;;;;;108.38;54.58;;;17.60;88.50;;;;;;4946273;28;95419;-74
2023/08/14 03:08:58;;;;;;;108.50;54.45;;;17.60;88.80;;;;;;4917094;28;96089;-73
2023/08/14 03:11:23;;;;;;;108.47;54.50;;;17.60;88.60;;;;;;4941960;28;95357;-72
2023/08/14 03:13:49;;;;;;;108.40;55.00;;;17.60;88.70;;;;;;4942491;28;95962;-74
2023/08/14 03:16:15;;;;;;;107.78;54.95;;;17.50;88.70;;;;;;4936755;28;97578;-74
2023/08/14 03:18:41;;;;;;;107.50;54.50;;;17.60;89.20;;;;;;4944936;28;94774;-74
2023/08/14 03:21:07;;;;;;;107.95;54.60;;;17.60;88.50;;;;;;4936877;28;96464;-73
2023/08/14 03:23:33;;;;;;;107.57;54.42;;;17.50;88.80;;;;;;4937609;28;96254;-72
2023/08/14 03:25:59;;;;;;;107.32;54.67;;;17.50;88.60;;;;;;4918737;28;96530;-72
2023/08/14 03:28:25;;;;;;;107.60;54.30;;;17.50;88.60;;;;;;4941026;28;95107;-74
2023/08/14 03:30:51;;;;;;;107.97;54.53;;;17.50;88.50;;;;;;4938751;28;101405;-72
2023/08/14 03:33:17;;;;;;;108.85;54.78;;;17.50;88.50;;;;;;4941860;28;94804;-72
2023/08/14 03:35:42;;;;;;;108.07;54.80;;;17.50;88.40;;;;;;4941390;28;94770;-72
2023/08/14 03:38:08;;;;;;;107.80;54.72;;;17.40;88.40;;;;;;4940120;28;96277;-72
2023/08/14 03:40:34;;;;;;;108.47;54.58;;;17.50;88.60;;;;;;4930835;28;100357;-73
2023/08/14 03:42:59;;;;;;;107.88;54.83;;;17.40;88.60;;;;;;4940944;28;98712;-72
2023/08/14 03:45:25;;;;;;;108.65;54.83;;;17.40;88.50;;;;;;4940606;28;94960;-73
2023/08/14 03:47:50;;;;;;;107.93;55.10;;;17.40;88.60;;;;;;4942722;28;96377;-72
2023/08/14 03:50:16;;;;;;;107.93;55.20;;;17.40;88.40;;;;;;4936171;28;96831;-74
2023/08/14 03:52:42;;;;;;;108.97;54.60;;;17.50;88.60;;;;;;4939676;28;96094;-74
2023/08/14 03:55:08;;;;;;;107.45;54.55;;;17.40;88.40;;;;;;4933105;28;96973;-71
2023/08/14 03:57:34;;;;;;;108.03;54.92;;;17.40;88.40;;;;;;4939253;28;95865;-72
2023/08/14 03:59:59;;;;;;;107.10;54.78;;;17.40;88.40;;;;;;4944313;28;95589;-73
2023/08/14 04:02:25;;;;;;;108.38;54.97;;;17.40;88.40;;;;;;4927869;28;94907;-74
2023/08/14 04:04:51;;;;;;;108.35;55.28;;;17.40;88.40;;;;;;4944084;28;98361;-72
2023/08/14 04:07:17;;;;;;;109.15;54.90;;;17.30;88.40;;;;;;4948071;28;96123;-73
2023/08/14 04:09:42;;;;;;;108.40;55.25;;;17.30;88.40;;;;;;4943681;28;96445;-71
2023/08/14 04:12:09;;;;;;;109.05;55.00;;;17.30;88.50;;;;;;4946907;28;96391;-73
2023/08/14 04:14:35;;;;;;;107.72;54.97;;;17.40;88.60;;;;;;4942400;28;96340;-73
2023/08/14 04:17:01;;;;;;;108.25;54.92;;;17.30;88.50;;;;;;4940568;28;95980;-71
2023/08/14 04:19:27;;;;;;;107.90;55.28;;;17.30;88.50;;;;;;4943258;28;97170;-70
2023/08/14 04:21:52;;;;;;;108.93;55.42;;;17.30;88.50;;;;;;4942021;28;99215;-73
2023/08/14 04:24:18;;;;;;;109.13;55.25;;;17.30;88.50;;;;;;4939326;28;96361;-73
2023/08/14 04:26:44;;;;;;;107.88;55.60;;;17.30;88.80;;;;;;4943464;28;95782;-73
2023/08/14 04:29:10;;;;;;;108.65;54.85;;;17.30;88.50;;;;;;4952388;28;94531;-72
2023/08/14 04:31:40;;;;;;;107.95;55.10;;;17.30;88.50;;;;;;4944771;28;95662;-70
2023/08/14 04:34:06;;;;;;;108.78;55.10;;;17.30;88.30;;;;;;4950140;28;94829;-73
2023/08/14 04:36:33;;;;;;;109.30;55.22;;;17.30;88.50;;;;;;4925893;28;100381;-70
2023/08/14 04:39:00;;;;;;;108.40;55.17;;;17.30;88.40;;;;;;4945020;28;96861;-70
2023/08/14 04:41:26;;;;;;;107.07;54.65;;;17.30;88.60;;;;;;4945895;28;97390;-73
2023/08/14 04:43:52;;;;;;;109.20;55.05;;;17.30;88.50;;;;;;4945929;28;95525;-72
2023/08/14 04:46:35;;;;;;;108.03;55.35;;;17.30;88.40;;;;;;4947014;28;96184;-71
2023/08/14 04:49:02;;;;;;;110.32;55.28;;;17.30;88.50;;;;;;4946163;28;95202;-73
2023/08/14 04:51:28;;;;;;;107.60;55.08;;;17.30;88.30;;;;;;4946207;28;96665;-73
2023/08/14 04:53:55;;;;;;;107.43;54.88;;;17.30;88.20;;;;;;4943992;28;94238;-72
2023/08/14 04:56:21;;;;;;;107.20;54.88;;;17.30;89.70;;;;;;4941313;28;98473;-69
2023/08/14 04:58:47;;;;;;;107.97;55.45;;;17.40;88.30;;;;;;4946374;28;97958;-72
2023/08/14 05:01:13;;;;;;;107.60;55.08;;;17.30;88.20;;;;;;4942000;28;98241;-73
2023/08/14 05:03:38;;;;;;;108.75;55.35;;;17.30;88.20;;;;;;4951770;28;94850;-70
2023/08/14 05:06:04;;;;;;;108.78;55.20;;;17.30;88.20;;;;;;4949538;28;98412;-73
2023/08/14 05:08:30;;;;;;;107.93;54.95;;;17.30;88.10;;;;;;4947869;28;95435;-72
2023/08/14 05:10:56;;;;;;;107.22;54.78;;;17.30;88.30;;;;;;4942856;28;95127;-72
2023/08/14 05:13:22;;;;;;;107.50;55.00;;;17.30;88.70;;;;;;4932656;28;94844;-72
2023/08/14 05:15:49;;;;;;;107.10;55.00;;;17.30;88.10;;;;;;4943288;28;99075;-70
2023/08/14 05:18:16;;;;;;;108.82;54.97;;;17.40;88.10;;;;;;4941236;28;99195;-72
2023/08/14 05:20:45;;;;;;;107.65;55.20;;;17.40;88.10;;;;;;4947347;28;95259;-72
2023/08/14 05:23:12;;;;;;;107.90;54.92;;;17.40;88.00;;;;;;4942722;28;95303;-71
2023/08/14 05:25:38;;;;;;;108.03;55.38;;;17.40;87.90;;;;;;4947956;28;96501;-73
2023/08/14 05:28:05;;;;;;;108.15;55.17;;;17.40;87.60;;;;;;4926566;28;96108;-71
2023/08/14 05:30:31;;;;;;;109.70;55.30;;;17.40;87.70;;;;;;4940580;28;96397;-72
2023/08/14 05:32:57;;;;;;;109.35;55.08;;;17.50;87.80;;;;;;4923941;28;97166;-72
2023/08/14 05:35:23;;;;;;;109.30;55.58;;;17.50;87.80;;;;;;4926524;28;96141;-71
2023/08/14 05:37:55;;;;;;;107.72;55.33;;;17.50;87.60;;;;;;4926213;28;97362;-72
2023/08/14 05:40:22;;;;;;;109.65;55.30;;;17.60;88.00;;;;;;4923926;28;94783;-72
2023/08/14 05:43:06;;;;;;;107.65;55.03;;;17.60;87.60;;;;;;4944403;28;97401;-73
2023/08/14 05:45:34;;;;;;;108.82;55.53;;;17.60;87.50;;;;;;4939769;28;96192;-70
2023/08/14 05:48:04;;;;;;;109.18;55.60;;;17.60;87.50;;;;;;4942252;28;95076;-72
2023/08/14 05:50:31;;;;;;;108.07;55.35;;;17.60;87.50;;;;;;4940244;28;100154;-74
2023/08/14 05:53:03;;;;;;;109.35;55.17;;;17.70;88.00;;;;;;4938855;28;95435;-71
2023/08/14 05:55:34;;;;;;;107.32;54.88;;;17.70;87.50;;;;;;4944225;28;95741;-70
2023/08/14 05:58:00;;;;;;;107.70;54.87;;;17.70;87.10;;;;;;4941516;28;96255;-70
2023/08/14 06:00:26;;;;;;;107.30;54.92;;;17.70;87.70;;;;;;4942193;28;95918;-72
2023/08/14 06:02:52;;;;;;;107.57;54.95;;;17.70;87.40;;;;;;4930210;28;94933;-71
2023/08/14 06:05:18;;;;;;;110.78;54.97;;;17.80;87.80;;;;;;4942712;28;95517;-71
2023/08/14 06:07:44;;;;;;;108.35;55.05;;;17.80;88.10;;;;;;4925112;28;94429;-71
2023/08/14 06:10:10;;;;;;;107.43;54.70;;;17.80;88.00;;;;;;4943921;28;95490;-70
2023/08/14 06:12:36;;;;;;;107.70;54.92;;;17.90;89.90;;;;;;4948018;28;95714;-70
2023/08/14 06:15:02;;;;;;;107.88;54.97;;;17.90;87.90;;;;;;4939364;28;95737;-71
2023/08/14 06:17:28;;;;;;;108.47;55.22;;;18.00;87.50;;;;;;4946670;28;97762;-72
2023/08/14 06:19:54;;;;;;;108.07;54.97;;;18.00;87.70;;;;;;4941305;28;96625;-70
2023/08/14 06:22:20;;;;;;;108.65;54.95;;;18.00;87.10;;;;;;4951061;28;95478;-71
2023/08/14 06:24:46;;;;;;;109.55;55.28;;;18.00;87.20;;;;;;4937483;28;96592;-70
2023/08/14 06:27:11;;;;;;;109.05;55.10;;;18.00;86.90;;;;;;4944688;28;94771;-71
2023/08/14 06:29:37;;;;;;;107.68;54.42;;;18.10;87.30;;;;;;4940214;28;96219;-70
2023/08/14 06:32:05;;;;;;;108.55;54.72;;;18.10;88.70;;;;;;4927660;28;94721;-71
2023/08/14 06:34:30;;;;;;;107.63;54.53;;;18.20;88.80;;;;;;4937021;28;95020;-70
2023/08/14 06:36:56;;;;;;;107.38;54.65;;;18.20;87.90;;;;;;4936976;28;96995;-71
2023/08/14 06:39:21;;;;;;;109.75;55.05;;;18.30;88.70;;;;;;4920939;28;97204;-71
2023/08/14 06:41:47;;;;;;;109.93;55.28;;;18.30;88.70;;;;;;4940465;28;95305;-70
2023/08/14 06:44:13;;;;;;;111.95;56.33;;;18.40;88.30;;;;;;4939407;28;96581;-71
2023/08/14 06:46:39;;;;;;;112.45;56.15;;;18.40;90.00;;;;;;4929091;28;95316;-71
2023/08/14 06:49:05;;;;;;;112.47;55.75;;;18.20;91.10;;;;;;4943643;28;95204;-71
2023/08/14 06:51:34;;;;;;;113.53;56.08;;;18.10;91.20;;;;;;4920566;28;99569;-74
2023/08/14 06:53:59;;;;;;;115.35;55.63;;;18.10;91.40;;;;;;4936599;28;96708;-72
2023/08/14 06:56:25;;;;;;;111.60;55.70;;;18.10;91.00;;;;;;4923047;28;98152;-75
2023/08/14 06:58:51;;;;;;;112.32;55.55;;;18.20;91.30;;;;;;4943005;28;95099;-75
2023/08/14 07:01:16;;;;;;;113.32;55.35;;;18.20;91.60;;;;;;4922590;28;100025;-77
2023/08/14 07:03:42;;;;;;;114.32;55.22;;;18.20;91.10;;;;;;4922504;28;97540;-76
2023/08/14 07:06:08;;;;;;;110.75;55.33;;;18.30;91.40;;;;;;4942202;28;95590;-76
2023/08/14 07:08:33;;;;;;;112.47;55.63;;;18.40;91.20;;;;;;4916446;28;95634;-75
2023/08/14 07:10:59;;;;;;;110.85;54.90;;;18.40;91.10;;;;;;4941270;28;99178;-74
2023/08/14 07:13:24;;;;;;;109.60;55.03;;;18.40;91.50;;;;;;4934306;28;95326;-73
2023/08/14 07:15:50;;;;;;;110.35;55.40;;;18.50;90.90;;;;;;4935568;28;96004;-76
2023/08/14 07:18:18;;;;;;;108.78;55.15;;;18.60;91.30;;;;;;4938761;28;96586;-77
2023/08/14 07:20:47;;;;;;;110.38;54.97;;;18.60;90.70;;;;;;4935425;28;100052;-73
2023/08/14 07:23:16;;;;;;;108.95;54.65;;;18.80;89.30;;;;;;4942729;28;99127;-75
2023/08/14 07:25:42;;;;;;;109.75;54.97;;;18.80;89.00;;;;;;4933838;28;95248;-73
2023/08/14 07:28:07;;;;;;;111.30;54.95;;;18.90;89.70;;;;;;4939719;28;96712;-76
2023/08/14 07:30:34;;;;;;;110.72;55.40;;;19.00;89.10;;;;;;4937570;28;95183;-73
2023/08/14 07:33:00;;;;;;;110.28;55.15;;;19.10;87.20;;;;;;4941719;28;98340;-76
2023/08/14 07:35:26;;;;;;;111.50;55.45;;;19.10;87.00;;;;;;4946960;28;95652;-77
2023/08/14 07:37:51;;;;;;;111.20;55.25;;;19.20;86.10;;;;;;4947393;28;94991;-73
2023/08/14 07:40:17;;;;;;;110.07;55.45;;;19.20;87.50;;;;;;4939306;28;95901;-72
2023/08/14 07:42:43;;;;;;;111.63;55.25;;;19.30;85.70;;;;;;4938036;28;95445;-72
2023/08/14 07:45:09;;;;;;;111.60;55.25;;;19.30;85.90;;;;;;4938323;28;96029;-73
2023/08/14 07:47:35;;;;;;;111.35;55.47;;;19.40;86.00;;;;;;4917318;28;94890;-74
2023/08/14 07:50:00;;;;;;;110.57;55.05;;;19.40;86.70;;;;;;4940565;28;94848;-74
2023/08/14 07:52:27;;;;;;;110.70;55.17;;;19.50;86.10;;;;;;4923121;28;97656;-74
2023/08/14 07:54:54;;;;;;;110.82;55.35;;;19.60;85.00;;;;;;4938070;28;96872;-73
2023/08/14 07:57:19;;;;;;;112.50;55.67;;;19.70;84.00;;;;;;4944889;28;96794;-73
2023/08/14 07:59:45;;;;;;;110.55;55.65;;;19.80;85.70;;;;;;4939311;28;95281;-72
2023/08/14 08:02:11;;;;;;;113.60;55.95;;;19.80;85.10;;;;;;4938198;28;95349;-72
2023/08/14 08:04:36;;;;;;;112.15;55.50;;;19.90;84.50;;;;;;4941533;28;96392;-74
2023/08/14 08:07:03;;;;;;;116.63;56.40;;;19.90;85.30;;;;;;4943071;28;96135;-74
2023/08/14 08:09:29;;;;;;;114.95;56.20;;;20.00;85.20;;;;;;4940726;28;95904;-75
2023/08/14 08:11:56;;;;;;;118.28;57.33;;;20.10;84.70;;;;;;4942249;28;96490;-76
2023/08/14 08:14:21;;;;;;;120.65;56.90;;;20.20;84.70;;;;;;4948931;28;98391;-76
2023/08/14 08:16:49;;;;;;;115.32;56.22;;;20.40;83.70;;;;;;4952578;28;96955;-77
2023/08/14 08:19:15;;;;;;;115.60;56.80;;;20.50;83.40;;;;;;4952057;28;94665;-77
2023/08/14 08:21:41;;;;;;;114.32;56.58;;;20.70;83.00;;;;;;4943776;28;95860;-75
2023/08/14 08:24:07;;;;;;;114.50;56.28;;;20.80;81.60;;;;;;4945572;28;94789;-73
2023/08/14 08:26:33;;;;;;;113.63;56.22;;;20.90;81.70;;;;;;4937512;28;95188;-72
2023/08/14 08:28:59;;;;;;;114.80;56.88;;;20.90;80.90;;;;;;4918651;28;95460;-75
2023/08/14 08:31:25;;;;;;;114.15;56.03;;;21.00;80.80;;;;;;4924971;28;95411;-73
2023/08/14 08:33:50;;;;;;;114.28;56.10;;;21.10;79.30;;;;;;4949593;28;95948;-74
2023/08/14 08:36:19;;;;;;;111.95;55.60;;;21.10;79.30;;;;;;4941597;28;96664;-73
2023/08/14 08:38:45;;;;;;;114.68;56.30;;;21.20;78.80;;;;;;4943853;28;96217;-72
2023/08/14 08:41:13;;;;;;;117.53;56.55;;;21.30;79.10;;;;;;4942535;28;97171;-73
2023/08/14 08:43:40;;;;;;;115.97;56.65;;;21.30;78.70;;;;;;4938244;28;99672;-71
2023/08/14 08:46:09;;;;;;;116.55;56.80;;;21.40;79.30;;;;;;4943521;28;95100;-74
2023/08/14 08:48:39;;;;;;;114.28;56.97;;;21.50;79.10;;;;;;4938249;28;94755;-75
2023/08/14 08:51:05;;;;;;;114.90;56.35;;;21.50;78.30;;;;;;4947771;28;95609;-74
2023/08/14 08:53:30;;;;;;;114.57;56.70;;;21.50;78.50;;;;;;4937718;28;95159;-73
2023/08/14 08:55:57;;;;;;;115.68;56.83;;;21.60;77.80;;;;;;4949507;28;94952;-72
2023/08/14 08:58:24;;;;;;;118.03;57.20;;;21.70;77.70;;;;;;4926049;28;94180;-74
2023/08/14 09:00:51;;;;;;;113.95;56.90;;;21.70;75.70;;;;;;4945865;28;95587;-74
2023/08/14 09:03:16;;;;;;;114.70;56.80;;;21.80;76.30;;;;;;4946671;28;98500;-75
2023/08/14 09:05:42;;;;;;;114.18;56.85;;;21.80;75.90;;;;;;4926287;28;96425;-74
2023/08/14 09:08:10;;;;;;;113.80;56.75;;;21.80;76.20;;;;;;4946061;28;94796;-74
2023/08/14 09:10:36;;;;;;;117.47;57.03;;;21.90;75.80;;;;;;4949991;28;95324;-74
2023/08/14 09:13:02;;;;;;;114.63;56.58;;;21.90;74.90;;;;;;4943780;28;95328;-73
2023/08/14 09:15:28;;;;;;;116.25;57.03;;;21.90;74.80;;;;;;4937840;28;96307;-72
2023/08/14 09:17:53;;;;;;;116.15;56.90;;;21.90;75.40;;;;;;4929386;28;94013;-74
2023/08/14 09:20:20;;;;;;;116.40;56.85;;;22.00;74.60;;;;;;4938684;28;94646;-74
2023/08/14 09:22:46;;;;;;;120.13;57.58;;;22.10;75.00;;;;;;4943947;28;96083;-75
2023/08/14 09:25:12;;;;;;;117.68;57.33;;;22.10;74.60;;;;;;4940452;28;96700;-73
2023/08/14 09:27:37;;;;;;;118.43;57.58;;;22.20;73.60;;;;;;4945836;28;96503;-72
2023/08/14 09:30:05;;;;;;;117.65;57.50;;;22.40;74.40;;;;;;4945594;28;96516;-72
2023/08/14 09:32:32;;;;;;;119.93;57.70;;;22.50;74.40;;;;;;4941782;28;96644;-75
2023/08/14 09:35:01;;;;;;;118.47;57.40;;;22.60;72.90;;;;;;4948674;28;95517;-74
2023/08/14 09:37:27;;;;;;;119.05;57.72;;;22.60;71.90;;;;;;4938710;28;96749;-74
2023/08/14 09:40:16;;;;;;;117.22;57.65;;;22.60;72.20;;;;;;4941194;28;96696;-74
2023/08/14 09:42:44;;;;;;;115.60;56.88;;;22.70;72.10;;;;;;4943201;28;94644;-75
2023/08/14 09:45:15;;;;;;;120.55;57.58;;;22.70;71.10;;;;;;4942647;28;97585;-75
2023/08/14 09:47:45;;;;;;;118.38;57.03;;;22.70;72.00;;;;;;4945414;28;96888;-74
2023/08/14 09:50:15;;;;;;;116.55;57.30;;;22.70;70.90;;;;;;4938289;28;95918;-75
2023/08/14 09:52:42;;;;;;;120.53;57.78;;;22.80;71.00;;;;;;4940537;28;96760;-73
2023/08/14 09:55:07;;;;;;;117.00;57.58;;;22.80;71.60;;;;;;4939976;28;97152;-75
2023/08/14 09:57:34;;;;;;;122.53;57.88;;;22.80;71.60;;;;;;4921191;28;95681;-75
2023/08/14 09:59:59;;;;;;;116.55;57.30;;;22.80;71.20;;;;;;4944051;28;96129;-75
2023/08/14 10:02:26;;;;;;;117.43;57.38;;;22.70;71.40;;;;;;4939022;28;95895;-74
2023/08/14 10:04:53;;;;;;;115.95;57.28;;;22.80;71.60;;;;;;4950255;28;94711;-75
2023/08/14 10:07:23;;;;;;;117.72;57.85;;;22.90;72.00;;;;;;4938604;28;96099;-75
2023/08/14 10:09:55;;;;;;;123.03;57.65;;;22.90;71.60;;;;;;4943218;28;96133;-74
2023/08/14 10:12:29;;;;;;;117.45;57.33;;;22.90;72.50;;;;;;4939571;28;96102;-75
2023/08/14 10:15:05;;;;;;;118.35;57.78;;;23.00;70.90;;;;;;4945588;28;95450;-74
2023/08/14 10:17:38;;;;;;;118.07;58.00;;;23.10;71.40;;;;;;4944163;28;94798;-75
2023/08/14 10:20:05;;;;;;;118.03;58.00;;;23.20;71.40;;;;;;4939338;28;96432;-75
2023/08/14 10:22:33;;;;;;;118.97;57.92;;;23.20;70.40;;;;;;4955444;28;94792;-75
2023/08/14 10:25:03;;;;;;;119.20;58.10;;;23.20;70.90;;;;;;4930085;28;95016;-74
2023/08/14 10:27:29;;;;;;;117.20;57.70;;;23.30;70.90;;;;;;4942204;28;96148;-75
2023/08/14 10:29:55;;;;;;;117.90;57.25;;;23.20;68.90;;;;;;4945962;28;95439;-75
2023/08/14 10:32:21;;;;;;;122.78;58.03;;;23.20;69.50;;;;;;4940189;28;94581;-75
2023/08/14 10:34:48;;;;;;;119.30;57.75;;;23.20;69.50;;;;;;4947414;28;97514;-76
2023/08/14 10:37:25;;;;;;;118.60;57.92;;;23.20;68.20;;;;;;4941320;28;95238;-74
2023/08/14 10:39:51;;;;;;;118.50;57.47;;;23.30;70.20;;;;;;4920890;28;97187;-76
2023/08/14 10:42:17;;;;;;;120.10;57.47;;;23.40;68.70;;;;;;4929886;28;96337;-75
2023/08/14 10:44:43;;;;;;;120.55;58.17;;;23.50;68.00;;;;;;4947347;28;95327;-74
2023/08/14 10:47:12;;;;;;;121.80;57.85;;;23.50;66.50;;;;;;4948122;28;94776;-74
2023/08/14 10:49:58;;;;;;;118.13;57.67;;;23.50;68.20;;;;;;4936498;28;96868;-75
2023/08/14 10:52:25;;;;;;;118.68;57.92;;;23.50;68.00;;;;;;4946749;28;95180;-74
2023/08/14 10:54:51;;;;;;;121.45;58.10;;;23.50;68.40;;;;;;4940967;28;94648;-75
2023/08/14 10:57:18;;;;;;;118.82;58.20;;;23.60;66.90;;;;;;4947071;28;95518;-76
2023/08/14 10:59:55;;;;;;;120.85;58.00;;;23.60;67.40;;;;;;4922376;28;96106;-74
2023/08/14 11:02:20;;;;;;;122.85;58.15;;;23.70;66.80;;;;;;4933050;28;94431;-74
2023/08/14 11:05:16;;;;;;;117.78;58.08;;;23.70;67.40;;;;;;4920207;28;98355;-79
2023/08/14 11:07:54;;;;;;;119.18;57.55;;;23.70;68.70;;;;;;4945637;28;95090;-80
2023/08/14 11:10:20;;;;;;;118.60;58.10;;;23.70;67.90;;;;;;4934505;28;96251;-78
2023/08/14 11:12:45;;;;;;;121.82;58.33;;;23.80;68.80;;;;;;4945450;28;95459;-75
2023/08/14 11:15:12;;;;;;;118.45;58.28;;;23.90;67.80;;;;;;4942385;28;98739;-74
2023/08/14 11:17:38;;;;;;;123.38;58.55;;;23.90;67.90;;;;;;4944755;28;94801;-70
2023/08/14 11:20:05;;;;;;;120.15;58.22;;;23.90;68.60;;;;;;4937159;28;94774;-71
2023/08/14 11:22:31;;;;;;;119.28;58.00;;;23.90;65.90;;;;;;4921467;28;96298;-71
2023/08/14 11:24:56;;;;;;;120.00;58.35;;;24.00;67.30;;;;;;4938132;28;96487;-71
2023/08/14 11:27:24;;;;;;;119.22;58.22;;;24.00;67.50;;;;;;4934284;28;94517;-73
2023/08/14 11:29:49;;;;;;;119.25;58.13;;;24.10;69.60;;;;;;4942955;28;95315;-72
2023/08/14 11:32:16;;;;;;;120.07;58.15;;;24.10;68.40;;;;;;4930423;28;97417;-72
2023/08/14 11:34:42;;;;;;;120.75;58.70;;;24.10;67.80;;;;;;4921365;28;96455;-74
2023/08/14 11:37:08;;;;;;;121.25;58.33;;;24.20;68.60;;;;;;4933999;28;96503;-72
2023/08/14 11:39:33;;;;;;;118.18;58.65;;;24.20;67.00;;;;;;4918007;28;97335;-70
2023/08/14 11:42:00;;;;;;;123.80;58.67;;;24.20;69.30;;;;;;4937774;28;96978;-72
2023/08/14 11:44:27;;;;;;;124.72;59.13;;;24.20;68.20;;;;;;4928507;28;96056;-72
2023/08/14 11:46:52;;;;;;;124.22;58.55;;;24.30;67.70;;;;;;4916113;28;96456;-73
2023/08/14 11:49:18;;;;;;;121.53;58.78;;;24.30;67.00;;;;;;4931029;28;96101;-75
2023/08/14 11:51:45;;;;;;;122.15;58.63;;;24.40;68.70;;;;;;4937357;28;97920;-74
2023/08/14 11:54:12;;;;;;;118.53;58.67;;;24.30;65.60;;;;;;4934935;28;99120;-74
2023/08/14 11:56:38;;;;;;;119.53;58.35;;;24.40;68.40;;;;;;4936965;28;94791;-71
2023/08/14 11:59:07;;;;;;;123.25;58.72;;;24.40;69.30;;;;;;4926025;28;96329;-74
2023/08/14 12:01:37;;;;;;;121.32;58.78;;;24.50;67.00;;;;;;4919263;28;95962;-75
2023/08/14 12:04:04;;;;;;;119.45;58.63;;;24.50;70.20;;;;;;4932838;28;95402;-74
2023/08/14 12:06:30;;;;;;;120.72;58.45;;;24.50;67.90;;;;;;4928388;28;95658;-76
2023/08/14 12:08:56;;;;;;;119.35;58.53;;;24.60;67.80;;;;;;4934494;28;95009;-74
2023/08/14 12:11:21;;;;;;;118.93;58.30;;;24.60;68.70;;;;;;4931183;28;95554;-75
2023/08/14 12:13:51;;;;;;;123.22;59.13;;;24.60;68.30;;;;;;4935009;28;95435;-73
2023/08/14 12:16:19;;;;;;;119.13;58.47;;;24.70;66.70;;;;;;4932074;28;95657;-74
2023/08/14 12:18:46;;;;;;;122.70;59.03;;;24.70;67.20;;;;;;4930970;28;96296;-75